Aérodrome :
LOGIN :

S'inscrire | Disclaimer

   EN    FR    IT 

 










Légende :    VFR   VFR Marginal   IFR   IFR Intensif   IFR Très Intensif
Visi : 
Plafond : 
>= 8 km
>= 3000ft
5 à 8 km
1000 à 3000 ft
1500m à 5 km
500 à 1000 ft
800 à 1500m
200 à 500 ft
< 800m
< 200 ft
Symboles :   Orages  Brouillard  Fortes neiges  Fortes précipitations  Vent > 20 kt
SIGMETs :   Divers  Orages  Givrage  Turbulence  Onde Orograph.  Cendres Volcan.







- Altitude de l'aérodrome : 90 ft
- Code IATA : NTE
- Voir les cartes d'approche


LFRS - Nantes

DERNIER METAR :
  • 181400Z AUTO VRB03KT CAVOK 29/17 Q1008 NOSIG

METARs EXPIRÉS :
  • 181330Z AUTO VRB03KT CAVOK 29/18 Q1008 NOSIG
  • 181300Z AUTO VRB03KT CAVOK 28/17 Q1008 NOSIG
  • 181230Z AUTO 07004KT 310V120 CAVOK 27/16 Q1008 NOSIG
  • 181200Z AUTO 04006KT 350V110 CAVOK 26/17 Q1009 BECMG 17010KT
  • 181130Z AUTO 04007KT 350V100 CAVOK 25/16 Q1009 BECMG 17010KT

TAF TAF LFRS
Valide du 18 à 12h jusqu'au 19 à 18h UTC


181100Z 1812/1918 17010KT CAVOK
BECMG 1818/1820 26007KT
PROB30
TEMPO 1822/1824 BKN003
PROB30
TEMPO 1903/1906 -SHRA BKN010 SCT040TCU
PROB30
TEMPO 1912/1918 24015G25KT 4000 SHRA BKN020 SCT040CB
ATIS : +33 2 40 05 12 74
Pas de NOTAMs connus pour ce terrain.



MET'MAP, la Météo Aéronautique d'un coup d'oeil ! - Copyright ORBIFLY Décembre 2007 - Disclaimer

ORBIFLY MET'MAP TEAM :

Programmation & Développement : Alexandra Zaïnal
Conception & Développement : Baudouin d'Aumeries
Co-Programmation & Développement : Marc-Olivier Méhu
Soutien technique & logistique : Manuel Goepfert

Contact : metmap@orbifly.com




SOURCES & CREDITS :

   NOAA